createdAt,value
2017-09-01T00:00:00.848Z,13.66
2017-09-01T00:00:05.112Z,13.68
2017-09-01T00:00:08.957Z,13.67
2017-09-01T00:00:12.943Z,13.67
2017-09-01T00:00:16.929Z,13.67
2017-09-01T00:00:21.150Z,13.67
2017-09-01T00:00:25.107Z,13.67
2017-09-01T00:00:29.311Z,13.67
2017-09-01T00:00:33.398Z,13.67
2017-09-01T00:00:37.866Z,13.67
2017-09-01T00:00:41.953Z,13.67
2017-09-01T00:00:46.162Z,13.67
2017-09-01T00:00:50.250Z,13.67
2017-09-01T00:00:54.331Z,13.67
2017-09-01T00:00:58.665Z,13.68
2017-09-01T00:01:03.338Z,13.67
2017-09-01T00:01:07.554Z,13.67
2017-09-01T00:01:11.907Z,13.67
2017-09-01T00:01:16.007Z,13.67
2017-09-01T00:01:20.230Z,13.67
2017-09-01T00:01:24.311Z,13.67
2017-09-01T00:01:28.276Z,13.68
2017-09-01T00:01:32.239Z,13.68
2017-09-01T00:01:36.459Z,13.68
2017-09-01T00:01:40.550Z,13.68
2017-09-01T00:01:44.748Z,13.67
2017-09-01T00:01:48.844Z,13.68
2017-09-01T00:01:53.057Z,13.68
2017-09-01T00:01:57.021Z,13.68
2017-09-01T00:02:01.237Z,13.68
2017-09-01T00:02:05.589Z,13.68
2017-09-01T00:02:09.800Z,13.68
2017-09-01T00:02:14.151Z,13.68
2017-09-01T00:02:18.359Z,13.68
2017-09-01T00:02:22.568Z,13.67
2017-09-01T00:02:27.038Z,13.68
2017-09-01T00:02:31.376Z,13.68
2017-09-01T00:02:35.462Z,13.68
2017-09-01T00:02:39.562Z,13.68
2017-09-01T00:02:43.772Z,13.68
2017-09-01T00:02:47.977Z,13.68
2017-09-01T00:02:52.310Z,13.68
2017-09-01T00:02:56.288Z,13.68
2017-09-01T00:03:00.246Z,13.68
2017-09-01T00:03:04.785Z,13.68
2017-09-01T00:03:08.629Z,13.69
2017-09-01T00:03:12.842Z,13.68
2017-09-01T00:03:16.932Z,13.69
2017-09-01T00:03:21.018Z,13.68
2017-09-01T00:03:25.104Z,13.67
2017-09-01T00:03:29.306Z,13.68
2017-09-01T00:03:33.170Z,13.68
2017-09-01T00:03:37.483Z,13.69
2017-09-01T00:03:41.318Z,13.68
2017-09-01T00:03:45.396Z,13.68
2017-09-01T00:03:49.636Z,13.69
2017-09-01T00:03:53.726Z,13.68
2017-09-01T00:03:57.955Z,13.68
2017-09-01T00:04:02.192Z,13.68
2017-09-01T00:04:06.277Z,13.68
2017-09-01T00:04:10.349Z,13.68
2017-09-01T00:04:14.564Z,13.68
2017-09-01T00:04:18.656Z,13.67
2017-09-01T00:04:22.899Z,13.68
2017-09-01T00:04:26.734Z,13.69
2017-09-01T00:04:30.688Z,13.69
2017-09-01T00:04:34.782Z,13.68
2017-09-01T00:04:38.883Z,13.69
2017-09-01T00:04:42.840Z,13.69
2017-09-01T00:04:47.049Z,13.68
2017-09-01T00:04:50.891Z,13.68
2017-09-01T00:04:54.725Z,13.67
2017-09-01T00:04:58.941Z,13.68
2017-09-01T00:05:03.068Z,13.68
2017-09-01T00:05:07.036Z,13.68
2017-09-01T00:05:11.124Z,13.68
2017-09-01T00:05:15.084Z,13.69
2017-09-01T00:05:19.167Z,13.69
2017-09-01T00:05:23.397Z,13.69
2017-09-01T00:05:27.611Z,13.68
2017-09-01T00:05:31.822Z,13.68
2017-09-01T00:05:36.051Z,13.69
2017-09-01T00:05:40.262Z,13.69
2017-09-01T00:05:44.239Z,13.69
2017-09-01T00:05:48.460Z,13.69
2017-09-01T00:05:52.418Z,13.69
2017-09-01T00:05:56.657Z,13.7
2017-09-01T00:06:00.473Z,13.69
2017-09-01T00:06:04.961Z,13.7
2017-09-01T00:06:09.056Z,13.69
2017-09-01T00:06:13.033Z,13.69
2017-09-01T00:06:16.896Z,13.69
2017-09-01T00:06:20.974Z,13.69
2017-09-01T00:06:25.067Z,13.69
2017-09-01T00:06:29.163Z,13.69
2017-09-01T00:06:33.632Z,13.69
2017-09-01T00:06:37.955Z,13.68
2017-09-01T00:06:41.914Z,13.69
2017-09-01T00:06:45.868Z,13.68
2017-09-01T00:06:50.206Z,13.69
2017-09-01T00:06:54.311Z,13.69
2017-09-01T00:06:58.394Z,13.68
2017-09-01T00:07:02.247Z,13.69
2017-09-01T00:07:06.339Z,13.69
2017-09-01T00:07:10.551Z,13.7
2017-09-01T00:07:14.635Z,13.7
2017-09-01T00:07:18.744Z,13.7
2017-09-01T00:07:22.950Z,13.69
2017-09-01T00:07:26.906Z,13.69
2017-09-01T00:07:31.004Z,13.69
2017-09-01T00:07:35.092Z,13.69
2017-09-01T00:07:39.566Z,13.69
2017-09-01T00:07:43.667Z,13.69
2017-09-01T00:07:47.750Z,13.7
2017-09-01T00:07:52.081Z,13.69
2017-09-01T00:07:56.272Z,13.7
2017-09-01T00:08:00.477Z,13.69
2017-09-01T00:08:04.647Z,13.7
2017-09-01T00:08:08.727Z,13.7
2017-09-01T00:08:12.927Z,13.69
2017-09-01T00:08:17.262Z,13.7
2017-09-01T00:08:21.589Z,13.7
2017-09-01T00:08:25.798Z,13.69
2017-09-01T00:08:29.892Z,13.69
2017-09-01T00:08:34.096Z,13.7
2017-09-01T00:08:38.316Z,13.7
2017-09-01T00:08:42.519Z,13.69
2017-09-01T00:08:46.591Z,13.7
2017-09-01T00:08:50.819Z,13.7
2017-09-01T00:08:54.533Z,13.7
2017-09-01T00:08:58.995Z,13.7
2017-09-01T00:09:03.088Z,13.7
2017-09-01T00:09:07.308Z,13.7
2017-09-01T00:09:11.642Z,13.71
2017-09-01T00:09:15.849Z,13.71
2017-09-01T00:09:20.061Z,13.71
2017-09-01T00:09:23.917Z,13.71
2017-09-01T00:09:27.877Z,13.71
2017-09-01T00:09:31.712Z,13.7
2017-09-01T00:09:36.072Z,13.7
2017-09-01T00:09:40.331Z,13.7
2017-09-01T00:09:44.299Z,13.7
2017-09-01T00:09:48.264Z,13.71
2017-09-01T00:09:52.480Z,13.71
2017-09-01T00:09:56.951Z,13.7
2017-09-01T00:10:00.787Z,13.71
2017-09-01T00:10:05.001Z,13.7
2017-09-01T00:10:09.100Z,13.71
2017-09-01T00:10:12.941Z,13.71
2017-09-01T00:10:17.030Z,13.71
2017-09-01T00:10:20.987Z,13.72
2017-09-01T00:10:25.070Z,13.71
2017-09-01T00:10:29.309Z,13.71
2017-09-01T00:10:33.139Z,13.71
2017-09-01T00:10:37.360Z,13.71
2017-09-01T00:10:41.594Z,13.72
2017-09-01T00:10:45.810Z,13.71
2017-09-01T00:10:50.023Z,13.71
2017-09-01T00:10:53.988Z,13.71
2017-09-01T00:10:58.087Z,13.72
2017-09-01T00:11:02.194Z,13.71
2017-09-01T00:11:06.169Z,13.71
2017-09-01T00:11:10.153Z,13.72
2017-09-01T00:11:14.362Z,13.71
2017-09-01T00:11:18.446Z,13.72
2017-09-01T00:11:22.656Z,13.72
2017-09-01T00:11:26.875Z,13.72
2017-09-01T00:11:30.980Z,13.72
2017-09-01T00:11:35.082Z,13.72
2017-09-01T00:11:39.419Z,13.72
2017-09-01T00:11:43.524Z,13.72
2017-09-01T00:11:47.739Z,13.72
2017-09-01T00:11:51.684Z,13.72
2017-09-01T00:11:55.789Z,13.72
2017-09-01T00:11:59.997Z,13.72
2017-09-01T00:12:04.086Z,13.73
2017-09-01T00:12:08.058Z,13.72
2017-09-01T00:12:12.398Z,13.72
2017-09-01T00:12:16.369Z,13.73
2017-09-01T00:12:20.597Z,13.73
2017-09-01T00:12:24.973Z,13.73
2017-09-01T00:12:29.060Z,13.73
2017-09-01T00:12:33.278Z,13.73
2017-09-01T00:12:37.250Z,13.72
2017-09-01T00:12:41.343Z,13.73
2017-09-01T00:12:45.680Z,13.73
2017-09-01T00:12:49.901Z,13.73
2017-09-01T00:12:53.861Z,13.73
2017-09-01T00:12:58.087Z,13.73
2017-09-01T00:13:02.658Z,13.73
2017-09-01T00:13:06.603Z,13.73
2017-09-01T00:13:10.810Z,13.73
2017-09-01T00:13:14.676Z,13.73
2017-09-01T00:13:18.770Z,13.73
2017-09-01T00:13:22.728Z,13.74
2017-09-01T00:13:26.810Z,13.73
2017-09-01T00:13:30.897Z,13.73
2017-09-01T00:13:34.741Z,13.73
2017-09-01T00:13:38.692Z,13.73
2017-09-01T00:13:42.785Z,13.73
2017-09-01T00:13:46.860Z,13.73
2017-09-01T00:13:51.061Z,13.73
2017-09-01T00:13:55.141Z,13.74
2017-09-01T00:13:59.232Z,13.73
2017-09-01T00:14:03.607Z,13.73
2017-09-01T00:14:07.825Z,13.73
2017-09-01T00:14:12.045Z,13.73
2017-09-01T00:14:16.399Z,13.74
2017-09-01T00:14:20.356Z,13.73
2017-09-01T00:14:24.560Z,13.74
2017-09-01T00:14:28.511Z,13.73
2017-09-01T00:14:32.337Z,13.73
2017-09-01T00:14:36.291Z,13.73
2017-09-01T00:14:40.380Z,13.74
2017-09-01T00:14:44.595Z,13.73
2017-09-01T00:14:48.688Z,13.73
2017-09-01T00:14:52.649Z,13.73
2017-09-01T00:14:56.738Z,13.73
2017-09-01T00:15:01.079Z,13.73
2017-09-01T00:15:05.301Z,13.74
2017-09-01T00:15:09.281Z,13.73
2017-09-01T00:15:13.365Z,13.74
2017-09-01T00:15:17.857Z,13.73
2017-09-01T00:15:21.816Z,13.73
2017-09-01T00:15:26.028Z,13.73
2017-09-01T00:15:29.989Z,13.73
2017-09-01T00:15:34.223Z,13.73
2017-09-01T00:15:38.185Z,13.73
2017-09-01T00:15:42.023Z,13.73
2017-09-01T00:15:46.116Z,13.74
2017-09-01T00:15:50.207Z,13.74
2017-09-01T00:15:54.424Z,13.75
2017-09-01T00:15:58.510Z,13.73
2017-09-01T00:16:02.400Z,13.73
2017-09-01T00:16:06.742Z,13.74
2017-09-01T00:16:10.953Z,13.74
2017-09-01T00:16:15.039Z,13.74
2017-09-01T00:16:19.007Z,13.74
2017-09-01T00:16:23.335Z,13.73
2017-09-01T00:16:27.546Z,13.74
2017-09-01T00:16:31.624Z,13.74
2017-09-01T00:16:35.964Z,13.74
2017-09-01T00:16:39.927Z,13.74
2017-09-01T00:16:43.761Z,13.74
2017-09-01T00:16:47.850Z,13.74
2017-09-01T00:16:51.950Z,13.73
2017-09-01T00:16:56.168Z,13.74
2017-09-01T00:17:00.380Z,13.74
2017-09-01T00:17:04.571Z,13.73
2017-09-01T00:17:08.668Z,13.74
2017-09-01T00:17:12.761Z,13.73
2017-09-01T00:17:16.856Z,13.74
2017-09-01T00:17:20.943Z,13.74
2017-09-01T00:17:24.772Z,13.74
2017-09-01T00:17:28.613Z,13.74
2017-09-01T00:17:32.848Z,13.74
2017-09-01T00:17:36.826Z,13.74
2017-09-01T00:17:41.166Z,13.74
2017-09-01T00:17:45.238Z,13.74
2017-09-01T00:17:49.591Z,13.74
2017-09-01T00:17:53.817Z,13.74
2017-09-01T00:17:57.890Z,13.74
2017-09-01T00:18:02.104Z,13.74
2017-09-01T00:18:06.205Z,13.73
2017-09-01T00:18:10.180Z,13.74
2017-09-01T00:18:14.254Z,13.74
2017-09-01T00:18:18.340Z,13.74
2017-09-01T00:18:22.427Z,13.74
2017-09-01T00:18:26.266Z,13.74
2017-09-01T00:18:30.365Z,13.74
2017-09-01T00:18:34.197Z,13.74
2017-09-01T00:18:38.151Z,13.74
2017-09-01T00:18:42.135Z,13.74
2017-09-01T00:18:46.350Z,13.75
2017-09-01T00:18:50.188Z,13.73
2017-09-01T00:18:54.525Z,13.74
2017-09-01T00:18:58.501Z,13.73
2017-09-01T00:19:02.593Z,13.74
2017-09-01T00:19:06.663Z,13.73
2017-09-01T00:19:10.881Z,13.74
2017-09-01T00:19:15.091Z,13.73
2017-09-01T00:19:19.300Z,13.74
2017-09-01T00:19:23.509Z,13.74
2017-09-01T00:19:27.742Z,13.74
2017-09-01T00:19:31.833Z,13.73
2017-09-01T00:19:36.047Z,13.73
2017-09-01T00:19:40.262Z,13.73
2017-09-01T00:19:44.105Z,13.74
2017-09-01T00:19:48.474Z,13.73
2017-09-01T00:19:52.432Z,13.73
2017-09-01T00:19:56.385Z,13.73
2017-09-01T00:20:00.357Z,13.73
2017-09-01T00:20:04.569Z,13.74
2017-09-01T00:20:08.904Z,13.74
2017-09-01T00:20:12.872Z,13.73
2017-09-01T00:20:16.829Z,13.73
2017-09-01T00:20:20.911Z,13.73
2017-09-01T00:20:25.000Z,13.73
2017-09-01T00:20:29.344Z,13.74
2017-09-01T00:20:33.576Z,13.73
2017-09-01T00:20:37.789Z,13.74
2017-09-01T00:20:42.006Z,13.73
2017-09-01T00:20:46.112Z,13.73
2017-09-01T00:20:50.091Z,13.74
2017-09-01T00:20:54.307Z,13.73
2017-09-01T00:20:58.127Z,13.73
2017-09-01T00:21:02.342Z,13.73
2017-09-01T00:21:06.308Z,13.74
2017-09-01T00:21:10.643Z,13.73
2017-09-01T00:21:14.475Z,13.73
2017-09-01T00:21:18.560Z,13.74
2017-09-01T00:21:22.697Z,13.73
2017-09-01T00:21:27.037Z,13.74
2017-09-01T00:21:31.134Z,13.73
2017-09-01T00:21:35.220Z,13.73
2017-09-01T00:21:39.188Z,13.73
2017-09-01T00:21:43.288Z,13.74
2017-09-01T00:21:47.513Z,13.73
2017-09-01T00:21:51.472Z,13.73
2017-09-01T00:21:55.311Z,13.73
2017-09-01T00:21:59.394Z,13.73
2017-09-01T00:22:03.475Z,13.74
2017-09-01T00:22:07.422Z,13.73
2017-09-01T00:22:11.255Z,13.74
2017-09-01T00:22:15.470Z,13.73
2017-09-01T00:22:19.682Z,13.73
2017-09-01T00:22:23.654Z,13.74
2017-09-01T00:22:27.736Z,13.73
2017-09-01T00:22:31.812Z,13.74
2017-09-01T00:22:35.887Z,13.74
2017-09-01T00:22:40.013Z,13.74
2017-09-01T00:22:44.111Z,13.74
2017-09-01T00:22:48.072Z,13.73
2017-09-01T00:22:52.424Z,13.73
2017-09-01T00:22:56.512Z,13.73
2017-09-01T00:23:00.847Z,13.73
2017-09-01T00:23:05.112Z,13.73
2017-09-01T00:23:09.331Z,13.73
2017-09-01T00:23:13.538Z,13.74
2017-09-01T00:23:17.253Z,13.73
2017-09-01T00:23:21.574Z,13.73
2017-09-01T00:23:25.393Z,13.74
2017-09-01T00:23:29.626Z,13.73
2017-09-01T00:23:33.701Z,13.73
2017-09-01T00:23:37.926Z,13.73
2017-09-01T00:23:42.148Z,13.74
2017-09-01T00:23:46.124Z,13.73
2017-09-01T00:23:50.211Z,13.73
2017-09-01T00:23:54.060Z,13.74
2017-09-01T00:23:58.294Z,13.74
2017-09-01T00:24:02.331Z,13.74
2017-09-01T00:24:06.430Z,13.73
2017-09-01T00:24:10.774Z,13.74
2017-09-01T00:24:14.746Z,13.74
2017-09-01T00:24:18.947Z,13.74
2017-09-01T00:24:22.775Z,13.74
2017-09-01T00:24:26.731Z,13.73
2017-09-01T00:24:30.984Z,13.74
2017-09-01T00:24:34.824Z,13.73
2017-09-01T00:24:39.029Z,13.74
2017-09-01T00:24:43.114Z,13.74
2017-09-01T00:24:47.326Z,13.74
2017-09-01T00:24:51.176Z,13.73
2017-09-01T00:24:55.270Z,13.74
2017-09-01T00:24:59.230Z,13.74
2017-09-01T00:25:03.329Z,13.73
2017-09-01T00:25:07.694Z,13.75
2017-09-01T00:25:11.410Z,13.75
2017-09-01T00:25:15.372Z,13.73
2017-09-01T00:25:19.588Z,13.74
2017-09-01T00:25:23.807Z,13.74
2017-09-01T00:25:27.887Z,13.74
2017-09-01T00:25:32.087Z,13.74
2017-09-01T00:25:35.792Z,13.74
2017-09-01T00:25:39.633Z,13.74
2017-09-01T00:25:43.835Z,13.74
2017-09-01T00:25:47.939Z,13.75
2017-09-01T00:25:51.895Z,13.74
2017-09-01T00:25:55.991Z,13.74
2017-09-01T00:26:00.083Z,13.74
2017-09-01T00:26:04.548Z,13.74
2017-09-01T00:26:08.516Z,13.75
2017-09-01T00:26:12.601Z,13.75
2017-09-01T00:26:16.693Z,13.74
2017-09-01T00:26:20.782Z,13.74
2017-09-01T00:26:24.871Z,13.73
2017-09-01T00:26:29.090Z,13.75
2017-09-01T00:26:33.308Z,13.74
2017-09-01T00:26:37.154Z,13.74
2017-09-01T00:26:41.366Z,13.74
2017-09-01T00:26:45.571Z,13.74
2017-09-01T00:26:49.671Z,13.74
2017-09-01T00:26:53.898Z,13.74
2017-09-01T00:26:58.109Z,13.74
2017-09-01T00:27:02.381Z,13.75
2017-09-01T00:27:06.595Z,13.74
2017-09-01T00:27:10.557Z,13.75
2017-09-01T00:27:14.517Z,13.75
2017-09-01T00:27:18.734Z,13.75
2017-09-01T00:27:23.069Z,13.74
2017-09-01T00:27:27.406Z,13.75
2017-09-01T00:27:31.748Z,13.74
2017-09-01T00:27:35.830Z,13.75
2017-09-01T00:27:39.809Z,13.74
2017-09-01T00:27:44.155Z,13.74
2017-09-01T00:27:48.243Z,13.75
2017-09-01T00:27:52.584Z,13.74
2017-09-01T00:27:56.677Z,13.74
2017-09-01T00:28:00.889Z,13.75
2017-09-01T00:28:05.258Z,13.75
2017-09-01T00:28:09.358Z,13.75
2017-09-01T00:28:13.571Z,13.75
2017-09-01T00:28:17.541Z,13.75
2017-09-01T00:28:21.630Z,13.75
2017-09-01T00:28:25.969Z,13.75
2017-09-01T00:28:29.938Z,13.75
2017-09-01T00:28:34.032Z,13.75
2017-09-01T00:28:38.255Z,13.76
2017-09-01T00:28:42.461Z,13.76
2017-09-01T00:28:46.774Z,13.75
2017-09-01T00:28:51.025Z,13.76
2017-09-01T00:28:55.115Z,13.76
2017-09-01T00:28:59.323Z,13.75
2017-09-01T00:29:03.638Z,13.75
2017-09-01T00:29:07.844Z,13.76
2017-09-01T00:29:12.053Z,13.76
2017-09-01T00:29:16.386Z,13.76
2017-09-01T00:29:20.477Z,13.76
2017-09-01T00:29:24.445Z,13.75
2017-09-01T00:29:28.667Z,13.76
2017-09-01T00:29:32.761Z,13.75
2017-09-01T00:29:36.732Z,13.75
2017-09-01T00:29:40.955Z,13.76
2017-09-01T00:29:44.915Z,13.75
2017-09-01T00:29:49.002Z,13.75
2017-09-01T00:29:53.211Z,13.75
2017-09-01T00:29:57.284Z,13.75
2017-09-01T00:30:01.379Z,13.75
2017-09-01T00:30:05.466Z,13.76
2017-09-01T00:30:09.447Z,13.76
2017-09-01T00:30:13.408Z,13.76
2017-09-01T00:30:17.497Z,13.76
2017-09-01T00:30:21.718Z,13.76
2017-09-01T00:30:25.668Z,13.76
2017-09-01T00:30:29.636Z,13.76
2017-09-01T00:30:33.967Z,13.75
2017-09-01T00:30:38.174Z,13.75
2017-09-01T00:30:42.520Z,13.75
2017-09-01T00:30:46.614Z,13.76
2017-09-01T00:30:50.842Z,13.76
2017-09-01T00:30:54.813Z,13.76
2017-09-01T00:30:59.024Z,13.76
2017-09-01T00:31:03.377Z,13.76
2017-09-01T00:31:07.593Z,13.75
2017-09-01T00:31:11.800Z,13.76
2017-09-01T00:31:15.634Z,13.76
2017-09-01T00:31:19.600Z,13.76
2017-09-01T00:31:23.707Z,13.75
2017-09-01T00:31:27.919Z,13.76
2017-09-01T00:31:32.249Z,13.75
2017-09-01T00:31:36.604Z,13.76
2017-09-01T00:31:40.451Z,13.75
2017-09-01T00:31:44.790Z,13.75
2017-09-01T00:31:48.623Z,13.76
2017-09-01T00:31:52.827Z,13.75
2017-09-01T00:31:56.897Z,13.75
2017-09-01T00:32:00.856Z,13.75
2017-09-01T00:32:04.953Z,13.76
2017-09-01T00:32:08.920Z,13.76
2017-09-01T00:32:12.889Z,13.76
2017-09-01T00:32:17.096Z,13.75
2017-09-01T00:32:21.194Z,13.76
2017-09-01T00:32:25.399Z,13.75
2017-09-01T00:32:29.361Z,13.76
2017-09-01T00:32:33.448Z,13.76
2017-09-01T00:32:37.538Z,13.75
2017-09-01T00:32:41.621Z,13.76
2017-09-01T00:32:45.952Z,13.75
2017-09-01T00:32:50.043Z,13.75
2017-09-01T00:32:54.016Z,13.76
2017-09-01T00:32:58.232Z,13.77
2017-09-01T00:33:02.326Z,13.76
2017-09-01T00:33:06.540Z,13.76
2017-09-01T00:33:10.488Z,13.76
2017-09-01T00:33:14.685Z,13.76
2017-09-01T00:33:18.776Z,13.76
2017-09-01T00:33:22.887Z,13.76
2017-09-01T00:33:27.111Z,13.76
2017-09-01T00:33:31.215Z,13.76
2017-09-01T00:33:35.440Z,13.76
2017-09-01T00:33:39.657Z,13.76
2017-09-01T00:33:43.634Z,13.76
2017-09-01T00:33:47.869Z,13.76
2017-09-01T00:33:51.823Z,13.76
2017-09-01T00:33:56.041Z,13.76
2017-09-01T00:34:00.128Z,13.76
2017-09-01T00:34:04.615Z,13.76
2017-09-01T00:34:08.711Z,13.76
2017-09-01T00:34:12.812Z,13.76
2017-09-01T00:34:16.899Z,13.77
2017-09-01T00:34:20.992Z,13.75
2017-09-01T00:34:25.321Z,13.76
2017-09-01T00:34:29.418Z,13.76
2017-09-01T00:34:33.509Z,13.75
2017-09-01T00:34:37.738Z,13.75
2017-09-01T00:34:41.693Z,13.75
2017-09-01T00:34:45.655Z,13.76
2017-09-01T00:34:49.866Z,13.75
2017-09-01T00:34:53.946Z,13.75
2017-09-01T00:34:57.911Z,13.76
2017-09-01T00:35:01.751Z,13.76
2017-09-01T00:35:05.720Z,13.76
2017-09-01T00:35:09.808Z,13.76
2017-09-01T00:35:14.149Z,13.75
2017-09-01T00:35:18.234Z,13.75
2017-09-01T00:35:22.061Z,13.75
2017-09-01T00:35:26.175Z,13.75
2017-09-01T00:35:30.509Z,13.76
2017-09-01T00:35:34.607Z,13.75
2017-09-01T00:35:38.573Z,13.76
2017-09-01T00:35:42.909Z,13.75
2017-09-01T00:35:47.005Z,13.75
2017-09-01T00:35:51.105Z,13.76
2017-09-01T00:35:55.059Z,13.76
2017-09-01T00:35:59.026Z,13.75
2017-09-01T00:36:03.465Z,13.75
2017-09-01T00:36:07.563Z,13.75
2017-09-01T00:36:11.641Z,13.75
2017-09-01T00:36:15.857Z,13.75
2017-09-01T00:36:20.078Z,13.76
2017-09-01T00:36:24.187Z,13.75
2017-09-01T00:36:28.020Z,13.76
2017-09-01T00:36:31.858Z,13.76
2017-09-01T00:36:36.090Z,13.76
2017-09-01T00:36:40.064Z,13.75
2017-09-01T00:36:44.410Z,13.75
2017-09-01T00:36:48.492Z,13.75
2017-09-01T00:36:52.316Z,13.75
2017-09-01T00:36:56.295Z,13.76
2017-09-01T00:37:00.373Z,13.76
2017-09-01T00:37:04.629Z,13.76
2017-09-01T00:37:08.722Z,13.75
2017-09-01T00:37:13.056Z,13.75
2017-09-01T00:37:17.399Z,13.76
2017-09-01T00:37:21.356Z,13.76
2017-09-01T00:37:25.185Z,13.76
2017-09-01T00:37:29.138Z,13.76
2017-09-01T00:37:33.237Z,13.76
2017-09-01T00:37:37.186Z,13.75
2017-09-01T00:37:41.029Z,13.76
2017-09-01T00:37:44.994Z,13.76
2017-09-01T00:37:49.191Z,13.76
2017-09-01T00:37:53.290Z,13.75
2017-09-01T00:37:57.244Z,13.75
2017-09-01T00:38:01.584Z,13.75
2017-09-01T00:38:05.798Z,13.75
2017-09-01T00:38:09.636Z,13.74
2017-09-01T00:38:13.724Z,13.75
2017-09-01T00:38:17.676Z,13.75
2017-09-01T00:38:21.510Z,13.75
2017-09-01T00:38:25.850Z,13.75
2017-09-01T00:38:30.062Z,13.75
2017-09-01T00:38:34.028Z,13.75
2017-09-01T00:38:37.754Z,13.75
2017-09-01T00:38:41.858Z,13.75
2017-09-01T00:38:45.809Z,13.75
2017-09-01T00:38:50.258Z,13.74
2017-09-01T00:38:54.112Z,13.74
2017-09-01T00:38:58.328Z,13.75
2017-09-01T00:39:02.670Z,13.75
2017-09-01T00:39:07.126Z,13.74
2017-09-01T00:39:11.485Z,13.75
2017-09-01T00:39:15.452Z,13.75
2017-09-01T00:39:19.518Z,13.74
2017-09-01T00:39:23.615Z,13.75
2017-09-01T00:39:27.833Z,13.74
2017-09-01T00:39:31.800Z,13.74
2017-09-01T00:39:36.014Z,13.74
2017-09-01T00:39:40.101Z,13.74
2017-09-01T00:39:44.308Z,13.74
2017-09-01T00:39:48.657Z,13.73
2017-09-01T00:39:52.738Z,13.74
2017-09-01T00:39:56.965Z,13.74
2017-09-01T00:40:01.287Z,13.75
2017-09-01T00:40:05.581Z,13.74
2017-09-01T00:40:09.537Z,13.74
2017-09-01T00:40:13.741Z,13.74
2017-09-01T00:40:17.954Z,13.74
2017-09-01T00:40:22.152Z,13.73
2017-09-01T00:40:26.359Z,13.75
2017-09-01T00:40:30.432Z,13.74
2017-09-01T00:40:34.395Z,13.73
2017-09-01T00:40:38.363Z,13.74
2017-09-01T00:40:42.707Z,13.74
2017-09-01T00:40:47.050Z,13.73
2017-09-01T00:40:51.391Z,13.73
2017-09-01T00:40:55.595Z,13.73
2017-09-01T00:40:59.684Z,13.73
2017-09-01T00:41:03.969Z,13.73
2017-09-01T00:41:07.942Z,13.74
2017-09-01T00:41:11.918Z,13.73
2017-09-01T00:41:16.008Z,13.73
2017-09-01T00:41:19.969Z,13.73
2017-09-01T00:41:23.948Z,13.73
2017-09-01T00:41:28.048Z,13.73
2017-09-01T00:41:32.128Z,13.73
2017-09-01T00:41:36.333Z,13.73
2017-09-01T00:41:40.292Z,13.72
2017-09-01T00:41:44.380Z,13.73
2017-09-01T00:41:48.727Z,13.72
2017-09-01T00:41:52.557Z,13.72
2017-09-01T00:41:57.018Z,13.72
2017-09-01T00:42:01.217Z,13.74
2017-09-01T00:42:05.548Z,13.72
2017-09-01T00:42:09.796Z,13.73
2017-09-01T00:42:14.015Z,13.72
2017-09-01T00:42:18.466Z,13.72
2017-09-01T00:42:22.425Z,13.72
2017-09-01T00:42:26.511Z,13.72
2017-09-01T00:42:30.602Z,13.72
2017-09-01T00:42:34.571Z,13.72
2017-09-01T00:42:38.660Z,13.73
2017-09-01T00:42:42.739Z,13.72
2017-09-01T00:42:46.590Z,13.73
2017-09-01T00:42:50.684Z,13.72
2017-09-01T00:42:54.775Z,13.73
2017-09-01T00:42:58.991Z,13.72
2017-09-01T00:43:02.997Z,13.72
2017-09-01T00:43:07.330Z,13.72
2017-09-01T00:43:11.415Z,13.72
2017-09-01T00:43:15.746Z,13.71
2017-09-01T00:43:19.826Z,13.72
2017-09-01T00:43:23.794Z,13.72
2017-09-01T00:43:27.753Z,13.72
2017-09-01T00:43:31.965Z,13.72
2017-09-01T00:43:36.038Z,13.71
2017-09-01T00:43:40.371Z,13.72
2017-09-01T00:43:44.725Z,13.72
2017-09-01T00:43:48.954Z,13.72
2017-09-01T00:43:53.295Z,13.72
2017-09-01T00:43:57.632Z,13.72
2017-09-01T00:44:01.978Z,13.72
2017-09-01T00:44:06.190Z,13.72
2017-09-01T00:44:10.148Z,13.71
2017-09-01T00:44:14.239Z,13.72
2017-09-01T00:44:18.480Z,13.72
2017-09-01T00:44:22.685Z,13.71
2017-09-01T00:44:26.897Z,13.71
2017-09-01T00:44:31.227Z,13.71
2017-09-01T00:44:35.602Z,13.72
2017-09-01T00:44:39.685Z,13.72
2017-09-01T00:44:43.634Z,13.72
2017-09-01T00:44:47.609Z,13.71
2017-09-01T00:44:51.839Z,13.72
2017-09-01T00:44:56.060Z,13.72
2017-09-01T00:44:59.897Z,13.72
2017-09-01T00:45:04.112Z,13.72
2017-09-01T00:45:08.311Z,13.72
2017-09-01T00:45:12.380Z,13.72
2017-09-01T00:45:16.613Z,13.71
2017-09-01T00:45:20.714Z,13.71
2017-09-01T00:45:24.921Z,13.72
2017-09-01T00:45:29.130Z,13.71
2017-09-01T00:45:33.091Z,13.72
2017-09-01T00:45:37.295Z,13.71
2017-09-01T00:45:41.392Z,13.72
2017-09-01T00:45:45.351Z,13.72
2017-09-01T00:45:49.425Z,13.72
2017-09-01T00:45:53.504Z,13.72
2017-09-01T00:45:57.733Z,13.71
2017-09-01T00:46:01.958Z,13.72
2017-09-01T00:46:06.166Z,13.72
2017-09-01T00:46:10.115Z,13.72
2017-09-01T00:46:14.190Z,13.72
2017-09-01T00:46:18.533Z,13.71
2017-09-01T00:46:22.744Z,13.71
2017-09-01T00:46:26.835Z,13.72
2017-09-01T00:46:31.057Z,13.72
2017-09-01T00:47:07.308Z,13.72
2017-09-01T00:47:11.259Z,13.71
2017-09-01T00:47:15.345Z,13.71
2017-09-01T00:47:19.433Z,13.72
2017-09-01T00:47:23.645Z,13.72
2017-09-01T00:47:27.860Z,13.71
2017-09-01T00:47:31.836Z,13.71
2017-09-01T00:47:36.044Z,13.72
2017-09-01T00:47:40.019Z,13.72
2017-09-01T00:47:43.990Z,13.71
2017-09-01T00:47:47.953Z,13.72
2017-09-01T00:47:52.038Z,13.72
2017-09-01T00:47:56.247Z,13.71
2017-09-01T00:48:00.467Z,13.72
2017-09-01T00:48:04.679Z,13.71
2017-09-01T00:48:08.633Z,13.72
2017-09-01T00:48:12.736Z,13.72
2017-09-01T00:48:16.957Z,13.71
2017-09-01T00:48:21.281Z,13.71
2017-09-01T00:48:25.365Z,13.71
2017-09-01T00:48:29.690Z,13.73
2017-09-01T00:48:34.028Z,13.72
2017-09-01T00:48:37.871Z,13.72
2017-09-01T00:48:41.974Z,13.72
2017-09-01T00:48:45.933Z,13.72
2017-09-01T00:48:50.150Z,13.71
2017-09-01T00:48:54.104Z,13.72
2017-09-01T00:48:58.457Z,13.72
2017-09-01T00:49:02.760Z,13.72
2017-09-01T00:49:07.226Z,13.72
2017-09-01T00:49:11.189Z,13.72
2017-09-01T00:49:15.142Z,13.72
2017-09-01T00:49:19.117Z,13.72
2017-09-01T00:49:22.946Z,13.72
2017-09-01T00:49:27.170Z,13.72
2017-09-01T00:49:31.381Z,13.71
2017-09-01T00:49:35.479Z,13.72
2017-09-01T00:49:39.448Z,13.72
2017-09-01T00:49:43.657Z,13.71
2017-09-01T00:49:47.877Z,13.71
2017-09-01T00:49:51.955Z,13.71
2017-09-01T00:49:56.043Z,13.72
2017-09-01T00:50:00.005Z,13.72
2017-09-01T00:50:04.108Z,13.7
2017-09-01T00:50:08.210Z,13.71
2017-09-01T00:50:12.297Z,13.71
2017-09-01T00:50:16.513Z,13.71
2017-09-01T00:50:20.505Z,13.71
2017-09-01T00:50:24.469Z,13.71
2017-09-01T00:50:28.686Z,13.71
2017-09-01T00:50:32.783Z,13.71
2017-09-01T00:50:36.613Z,13.71
2017-09-01T00:50:40.574Z,13.71
2017-09-01T00:50:44.657Z,13.71
2017-09-01T00:50:48.750Z,13.71
2017-09-01T00:50:53.093Z,13.72
2017-09-01T00:50:57.308Z,13.71
2017-09-01T00:51:01.527Z,13.71
2017-09-01T00:51:05.497Z,13.71
2017-09-01T00:51:09.711Z,13.71
2017-09-01T00:51:13.542Z,13.71
2017-09-01T00:51:17.750Z,13.71
2017-09-01T00:51:21.592Z,13.7
2017-09-01T00:51:25.555Z,13.72
2017-09-01T00:51:29.634Z,13.71
2017-09-01T00:51:33.848Z,13.7
2017-09-01T00:51:38.059Z,13.72
2017-09-01T00:51:42.036Z,13.72
2017-09-01T00:51:45.991Z,13.71
2017-09-01T00:51:50.074Z,13.71
2017-09-01T00:51:54.171Z,13.7
2017-09-01T00:51:58.518Z,13.71
2017-09-01T00:52:02.849Z,13.71
2017-09-01T00:52:07.064Z,13.72
2017-09-01T00:52:11.149Z,13.71
2017-09-01T00:52:15.246Z,13.7
2017-09-01T00:52:19.334Z,13.71
2017-09-01T00:52:23.659Z,13.72
2017-09-01T00:52:27.735Z,13.71
2017-09-01T00:52:31.945Z,13.71
2017-09-01T00:52:36.278Z,13.72
2017-09-01T00:52:40.359Z,13.71
2017-09-01T00:52:44.322Z,13.71
2017-09-01T00:52:48.659Z,13.72
2017-09-01T00:52:52.611Z,13.71
2017-09-01T00:52:56.823Z,13.72
2017-09-01T00:53:00.792Z,13.71
2017-09-01T00:53:04.605Z,13.72
2017-09-01T00:53:08.810Z,13.72
2017-09-01T00:53:12.904Z,13.71
2017-09-01T00:53:17.239Z,13.72
2017-09-01T00:53:21.089Z,13.71
2017-09-01T00:53:25.298Z,13.71
2017-09-01T00:53:29.508Z,13.71
2017-09-01T00:53:33.854Z,13.71
2017-09-01T00:53:38.087Z,13.71